Time,TemperatureF,DewpointF,PressureIn,WindDirection,WindDirectionDegrees,WindSpeedMPH,WindSpeedGustMPH,Humidity,HourlyPrecipIn,Conditions,Clouds,dailyrainin,SolarRadiationWatts/m^2,SoftwareType,DateUTC
2013-03-05 00:04:00,65.6,53.5,29.82,NNW,328,7.2,7.2,65,0.00,CLR,,0.00,1.0,WeatherDisplay:10.37,2013-03-05 06:04:00,
2013-03-05 00:09:00,65.8,52.9,29.83,NW,318,16.1,16.1,63,0.00,CLR,,0.00,1.0,WeatherDisplay:10.37,2013-03-05 06:09:00,
2013-03-05 00:14:00,65.3,50.1,29.84,NNE,17,21.9,21.9,58,0.00,CLR,,0.00,2.0,WeatherDisplay:10.37,2013-03-05 06:14:00,
2013-03-05 00:19:00,64.8,48.2,29.84,NNE,23,28.8,28.8,55,0.00,CLR,,0.00,1.0,WeatherDisplay:10.37,2013-03-05 06:19:00,
2013-03-05 00:24:00,64.1,47.6,29.85,NNW,337,16.1,16.1,55,0.00,CLR,,0.00,1.0,WeatherDisplay:10.37,2013-03-05 06:24:00,
2013-03-05 00:30:00,63.6,46.6,29.86,NNE,12,25.3,25.3,54,0.00,CLR,,0.00,1.0,WeatherDisplay:10.37,2013-03-05 06:30:00,
2013-03-05 00:35:00,63.3,46.8,29.87,NNE,15,18.0,31.0,55,0.00,CLR,,0.00,0.0,WeatherDisplay:10.37,2013-03-05 06:35:00,
2013-03-05 00:40:00,62.9,46.5,29.87,North,7,17.0,30.0,55,0.00,CLR,,0.00,0.0,WeatherDisplay:10.37,2013-03-05 06:40:00,
2013-03-05 00:45:00,62.3,46.9,29.88,North,350,20.0,29.0,57,0.00,CLR,,0.00,0.0,WeatherDisplay:10.37,2013-03-05 06:45:00,
2013-03-05 00:50:00,60.7,46.7,29.88,NNW,337,21.0,30.0,60,0.00,CLR,,0.00,0.0,WeatherDisplay:10.37,2013-03-05 06:50:00,
2013-03-05 00:55:00,58.9,45.9,29.88,NNW,336,23.0,31.0,62,0.00,CLR,,0.00,0.0,WeatherDisplay:10.37,2013-03-05 06:55:00,
2013-03-05 01:00:00,57.8,45.7,29.88,NNW,341,18.0,33.0,64,0.00,CLR,,0.00,0.0,WeatherDisplay:10.37,2013-03-05 07:00:00,
2013-03-05 01:05:00,57.1,45.4,29.90,NNW,345,21.0,28.0,65,0.00,CLR,,0.00,0.0,WeatherDisplay:10.37,2013-03-05 07:05:00,
2013-03-05 01:10:00,56.5,45.3,29.91,North,352,22.0,32.0,66,0.00,CLR,,0.00,0.0,WeatherDisplay:10.37,2013-03-05 07:10:00,
2013-03-05 01:15:00,56.1,44.9,29.93,NNE,15,31.1,31.1,66,0.00,CLR,,0.00,1.0,WeatherDisplay:10.37,2013-03-05 07:15:00,
2013-03-05 01:20:00,56.1,45.3,29.94,North,355,15.0,26.0,67,0.00,CLR,,0.00,0.0,WeatherDisplay:10.37,2013-03-05 07:20:00,
2013-03-05 01:25:00,55.8,45.0,29.95,NNW,341,21.0,27.0,67,0.00,CLR,,0.00,0.0,WeatherDisplay:10.37,2013-03-05 07:25:00,
2013-03-05 01:30:00,55.3,44.9,29.95,NNW,337,25.0,37.0,68,0.00,CLR,,0.00,0.0,WeatherDisplay:10.37,2013-03-05 07:30:00,
2013-03-05 01:35:00,54.7,44.3,29.96,NNW,340,24.0,38.0,68,0.00,CLR,,0.00,0.0,WeatherDisplay:10.37,2013-03-05 07:35:00,
2013-03-05 01:40:00,54.3,44.4,29.97,NNW,341,17.0,31.0,69,0.00,CLR,,0.00,0.0,WeatherDisplay:10.37,2013-03-05 07:40:00,
2013-03-05 01:45:00,53.7,44.1,29.98,NNW,347,25.3,25.3,70,0.00,CLR,,0.00,1.0,WeatherDisplay:10.37,2013-03-05 07:45:00,
2013-03-05 01:50:00,53.1,43.9,29.99,NNW,332,24.0,32.0,71,0.00,CLR,,0.00,0.0,WeatherDisplay:10.37,2013-03-05 07:50:00,
2013-03-05 01:55:00,52.5,43.7,29.99,NNW,331,25.0,38.0,72,0.00,CLR,,0.00,0.0,WeatherDisplay:10.37,2013-03-05 07:55:00,
2013-03-05 02:00:00,51.9,43.2,29.99,NNW,331,29.0,35.0,72,0.00,,,0.00,0.0,WeatherDisplay:10.37,2013-03-05 08:00:00,
2013-03-05 02:05:00,51.5,43.1,29.99,NNW,333,20.0,30.0,73,0.00,CLR,,0.00,0.0,WeatherDisplay:10.37,2013-03-05 08:05:00,
2013-03-05 02:10:00,51.2,43.2,30.00,NNW,327,28.8,28.8,74,0.00,CLR,,0.00,1.0,WeatherDisplay:10.37,2013-03-05 08:10:00,
2013-03-05 02:15:00,50.9,42.9,30.01,NNW,343,18.0,31.0,74,0.00,CLR,,0.00,0.0,WeatherDisplay:10.37,2013-03-05 08:15:00,
2013-03-05 02:20:00,50.6,42.3,30.02,NNW,341,20.0,36.0,73,0.00,CLR,,0.00,0.0,WeatherDisplay:10.37,2013-03-05 08:20:00,
2013-03-05 02:25:00,50.5,42.5,30.02,NNW,341,21.0,31.0,74,0.00,CLR,,0.00,0.0,WeatherDisplay:10.37,2013-03-05 08:25:00,
2013-03-05 02:30:00,50.2,41.9,30.03,NNW,341,23.0,37.0,73,0.00,CLR,,0.00,0.0,WeatherDisplay:10.37,2013-03-05 08:30:00,
2013-03-05 02:35:00,50.0,41.3,30.04,NNW,342,15.0,33.0,72,0.00,CLR,,0.00,0.0,WeatherDisplay:10.37,2013-03-05 08:35:00,
2013-03-05 02:40:00,49.8,40.8,30.03,North,10,33.4,33.4,71,0.00,,,0.00,1.0,WeatherDisplay:10.37,2013-03-05 08:40:00,
2013-03-05 02:45:00,49.7,41.0,30.04,NNW,346,26.0,39.0,72,0.00,,,0.00,0.0,WeatherDisplay:10.37,2013-03-05 08:45:00,
2013-03-05 02:50:00,49.6,40.6,30.04,NNW,346,28.0,38.0,71,0.00,CLR,,0.00,0.0,WeatherDisplay:10.37,2013-03-05 08:50:00,
2013-03-05 02:55:00,49.5,40.1,30.04,SE,134,41.4,41.4,70,0.00,,,0.00,1.0,WeatherDisplay:10.37,2013-03-05 08:55:00,
2013-03-05 03:00:00,49.4,40.0,30.04,North,1,24.0,39.0,70,0.00,CLR,,0.00,0.0,WeatherDisplay:10.37,2013-03-05 09:00:00,
2013-03-05 03:05:00,49.4,40.0,30.04,North,2,21.0,36.0,70,0.00,CLR,,0.00,0.0,WeatherDisplay:10.37,2013-03-05 09:05:00,
2013-03-05 03:10:00,49.3,39.9,30.05,North,354,33.4,33.4,70,0.00,,,0.00,1.0,WeatherDisplay:10.37,2013-03-05 09:10:00,
2013-03-05 03:15:00,49.3,39.6,30.07,North,354,23.0,32.0,69,0.00,CLR,,0.00,0.0,WeatherDisplay:10.37,2013-03-05 09:15:00,
2013-03-05 03:20:00,49.4,39.7,30.07,NNW,339,26.5,26.5,69,0.00,CLR,,0.00,1.0,WeatherDisplay:10.37,2013-03-05 09:20:00,
2013-03-05 03:25:00,49.4,39.3,30.09,NNW,344,18.0,33.0,68,0.00,CLR,,0.00,0.0,WeatherDisplay:10.37,2013-03-05 09:25:00,
2013-03-05 03:30:00,49.5,39.0,30.12,NNW,340,17.0,33.0,67,0.00,CLR,,0.00,0.0,WeatherDisplay:10.37,2013-03-05 09:30:00,
2013-03-05 03:35:00,49.5,38.6,30.13,NNW,337,27.6,27.6,66,0.00,CLR,,0.00,1.0,WeatherDisplay:10.37,2013-03-05 09:35:00,
2013-03-05 03:40:00,49.6,38.3,30.12,NNW,343,21.0,35.0,65,0.00,CLR,,0.00,0.0,WeatherDisplay:10.37,2013-03-05 09:40:00,
2013-03-05 03:45:00,49.6,37.9,30.11,North,350,22.0,36.0,64,0.00,CLR,,0.00,0.0,WeatherDisplay:10.37,2013-03-05 09:45:00,
2013-03-05 03:50:00,49.5,37.0,30.12,North,356,20.0,34.0,62,0.00,CLR,,0.00,0.0,WeatherDisplay:10.37,2013-03-05 09:50:00,
2013-03-05 03:55:00,49.6,36.7,30.13,North,359,17.0,32.0,61,0.00,CLR,,0.00,0.0,WeatherDisplay:10.37,2013-03-05 09:55:00,
2013-03-05 04:00:00,49.5,36.6,30.13,North,358,17.0,33.0,61,0.00,CLR,,0.00,0.0,WeatherDisplay:10.37,2013-03-05 10:00:00,
2013-03-05 04:05:00,49.5,36.6,30.14,NNW,330,21.9,21.9,61,0.00,CLR,,0.00,1.0,WeatherDisplay:10.37,2013-03-05 10:05:00,
2013-03-05 04:10:00,49.5,36.6,30.14,North,351,15.0,29.0,61,0.00,CLR,,0.00,0.0,WeatherDisplay:10.37,2013-03-05 10:10:00,
2013-03-05 04:15:00,49.3,36.4,30.14,North,2,14.0,22.0,61,0.00,CLR,,0.00,0.0,WeatherDisplay:10.37,2013-03-05 10:15:00,
2013-03-05 04:20:00,49.2,36.3,30.15,NNW,348,16.0,22.0,61,0.00,CLR,,0.00,0.0,WeatherDisplay:10.37,2013-03-05 10:20:00,
2013-03-05 04:25:00,49.2,36.3,30.16,NNW,344,16.0,27.0,61,0.00,CLR,,0.00,0.0,WeatherDisplay:10.37,2013-03-05 10:25:00,
2013-03-05 04:30:00,49.2,36.3,30.15,North,349,17.0,29.0,61,0.00,CLR,,0.00,0.0,WeatherDisplay:10.37,2013-03-05 10:30:00,
2013-03-05 04:35:00,49.2,36.3,30.16,North,354,16.0,33.0,61,0.00,CLR,,0.00,0.0,WeatherDisplay:10.37,2013-03-05 10:35:00,
2013-03-05 04:40:00,49.1,36.2,30.16,North,354,17.0,26.0,61,0.00,CLR,,0.00,0.0,WeatherDisplay:10.37,2013-03-05 10:40:00,
2013-03-05 04:45:00,49.0,36.1,30.16,North,9,21.9,21.9,61,0.00,CLR,,0.00,1.0,WeatherDisplay:10.37,2013-03-05 10:45:00,
2013-03-05 04:50:00,49.1,36.2,30.17,North,350,26.0,40.0,61,0.00,CLR,,0.00,0.0,WeatherDisplay:10.37,2013-03-05 10:50:00,
2013-03-05 04:55:00,49.0,36.5,30.17,North,9,25.3,25.3,62,0.00,CLR,,0.00,1.0,WeatherDisplay:10.37,2013-03-05 10:55:00,
2013-03-05 05:00:00,48.8,36.4,30.17,North,357,20.0,31.0,62,0.00,CLR,,0.00,0.0,WeatherDisplay:10.37,2013-03-05 11:00:00,
2013-03-05 05:05:00,48.6,36.6,30.17,North,359,15.0,28.0,63,0.00,CLR,,0.00,0.0,WeatherDisplay:10.37,2013-03-05 11:05:00,
2013-03-05 05:10:00,48.4,36.8,30.17,North,2,15.0,24.0,64,0.00,CLR,,0.00,0.0,WeatherDisplay:10.37,2013-03-05 11:10:00,
2013-03-05 05:15:00,48.3,37.1,30.18,North,6,12.0,26.0,65,0.00,CLR,,0.00,0.0,WeatherDisplay:10.37,2013-03-05 11:15:00,
2013-03-05 05:20:00,48.0,36.8,30.18,North,0,8.0,14.0,65,0.00,CLR,,0.00,0.0,WeatherDisplay:10.37,2013-03-05 11:20:00,
2013-03-05 05:25:00,47.7,36.9,30.18,North,356,12.0,22.0,66,0.00,CLR,,0.00,0.0,WeatherDisplay:10.37,2013-03-05 11:25:00,
2013-03-05 05:30:00,47.6,36.8,30.18,North,358,13.0,24.0,66,0.00,CLR,,0.00,0.0,WeatherDisplay:10.37,2013-03-05 11:30:00,
2013-03-05 05:35:00,47.5,37.1,30.18,North,7,18.0,29.0,67,0.00,CLR,,0.00,0.0,WeatherDisplay:10.37,2013-03-05 11:35:00,
2013-03-05 05:40:00,47.5,37.1,30.19,North,355,23.1,23.1,67,0.00,CLR,,0.00,1.0,WeatherDisplay:10.37,2013-03-05 11:40:00,
2013-03-05 05:45:00,47.4,37.0,30.19,North,354,16.0,28.0,67,0.00,CLR,,0.00,0.0,WeatherDisplay:10.37,2013-03-05 11:45:00,
2013-03-05 05:50:00,47.2,37.2,30.19,North,351,14.0,23.0,68,0.00,CLR,,0.00,0.0,WeatherDisplay:10.37,2013-03-05 11:50:00,
2013-03-05 05:55:00,47.1,37.1,30.19,North,355,13.0,22.0,68,0.00,CLR,,0.00,0.0,WeatherDisplay:10.37,2013-03-05 11:55:00,
2013-03-05 06:00:00,46.9,37.3,30.20,NNW,346,12.7,12.7,69,0.00,CLR,,0.00,1.0,WeatherDisplay:10.37,2013-03-05 12:00:00,
2013-03-05 06:05:00,46.6,37.0,30.20,North,356,17.3,17.3,69,0.00,CLR,,0.00,1.0,WeatherDisplay:10.37,2013-03-05 12:05:00,
2013-03-05 06:10:00,46.4,36.8,30.21,North,355,15.0,15.0,69,0.00,CLR,,0.00,1.0,WeatherDisplay:10.37,2013-03-05 12:10:00,
2013-03-05 06:16:00,46.4,36.8,30.21,NNW,343,25.3,25.3,69,0.00,CLR,,0.00,0.0,WeatherDisplay:10.37,2013-03-05 12:16:00,
2013-03-05 06:21:00,46.3,36.3,30.21,North,349,19.6,19.6,68,0.00,OVC,,0.00,1.0,WeatherDisplay:10.37,2013-03-05 12:21:00,
2013-03-05 06:26:00,46.3,35.9,30.21,North,10,19.8,19.8,67,0.00,OVC,,0.00,2.0,WeatherDisplay:10.37,2013-03-05 12:26:00,
2013-03-05 06:31:00,46.3,35.2,30.22,North,7,19.5,19.5,65,0.00,OVC,,0.00,2.0,WeatherDisplay:10.37,2013-03-05 12:31:00,
2013-03-05 06:36:00,46.2,35.5,30.22,NNW,331,21.9,21.9,66,0.00,OVC,,0.00,2.0,WeatherDisplay:10.37,2013-03-05 12:36:00,
2013-03-05 06:42:00,46.1,35.7,30.23,NNW,331,18.4,18.4,67,0.00,OVC,,0.00,3.0,WeatherDisplay:10.37,2013-03-05 12:42:00,
2013-03-05 06:47:00,45.8,35.5,30.23,North,8,23.0,23.0,67,0.00,OVC,,0.00,6.0,WeatherDisplay:10.37,2013-03-05 12:47:00,
2013-03-05 06:52:00,45.7,34.6,30.23,NNW,333,19.6,19.6,65,0.00,OVC,,0.00,11.0,WeatherDisplay:10.37,2013-03-05 12:52:00,
2013-03-05 06:58:00,45.5,33.2,30.24,North,7,21.9,21.9,62,0.00,OVC,,0.00,17.0,WeatherDisplay:10.37,2013-03-05 12:58:00,
2013-03-05 07:03:00,45.5,32.8,30.24,NNW,337,20.7,20.7,61,0.00,OVC,,0.00,23.0,WeatherDisplay:10.37,2013-03-05 13:03:00,
2013-03-05 07:08:00,45.5,32.4,30.25,North,10,21.9,21.9,60,0.00,OVC,,0.00,29.0,WeatherDisplay:10.37,2013-03-05 13:08:00,
2013-03-05 07:13:00,45.4,32.7,30.25,North,353,18.4,18.4,61,0.00,OVC,,0.00,35.0,WeatherDisplay:10.37,2013-03-05 13:13:00,
2013-03-05 07:19:00,45.3,32.6,30.25,NNW,347,23.0,23.0,61,0.00,OVC,,0.00,38.0,WeatherDisplay:10.37,2013-03-05 13:19:00,
2013-03-05 07:24:00,45.2,32.9,30.26,NNW,342,21.9,21.9,62,0.00,OVC,,0.00,42.0,WeatherDisplay:10.37,2013-03-05 13:24:00,
2013-03-05 07:29:00,45.2,32.9,30.26,NNW,341,29.9,29.9,62,0.00,OVC,,0.00,48.0,WeatherDisplay:10.37,2013-03-05 13:29:00,
2013-03-05 07:34:00,45.2,32.9,30.26,NNW,342,27.6,27.6,62,0.00,OVC,,0.00,56.0,WeatherDisplay:10.37,2013-03-05 13:34:00,
2013-03-05 07:39:00,45.2,32.9,30.27,NNW,345,25.3,25.3,62,0.00,OVC,,0.00,58.0,WeatherDisplay:10.37,2013-03-05 13:39:00,
2013-03-05 07:45:00,45.2,32.9,30.27,NNW,346,23.0,23.0,62,0.00,OVC,,0.00,58.0,WeatherDisplay:10.37,2013-03-05 13:45:00,
2013-03-05 07:50:00,45.3,32.6,30.28,NNW,343,16.0,26.0,61,0.00,OVC,,0.00,67.0,WeatherDisplay:10.37,2013-03-05 13:50:00,
2013-03-05 07:55:00,45.4,32.7,30.28,NNW,343,16.0,26.0,61,0.00,OVC,,0.00,79.0,WeatherDisplay:10.37,2013-03-05 13:55:00,
2013-03-05 08:00:00,45.5,33.2,30.28,NNW,345,14.0,23.0,62,0.00,OVC,,0.00,75.0,WeatherDisplay:10.37,2013-03-05 14:00:00,
2013-03-05 08:05:00,45.5,32.8,30.28,NNW,346,18.0,26.0,61,0.00,OVC,,0.00,68.0,WeatherDisplay:10.37,2013-03-05 14:05:00,
2013-03-05 08:10:00,45.5,32.4,30.28,NNW,345,20.0,25.0,60,0.00,OVC,,0.00,73.0,WeatherDisplay:10.37,2013-03-05 14:10:00,
2013-03-05 08:15:00,45.6,32.9,30.28,NNW,347,12.0,28.0,61,0.00,OVC,,0.00,77.0,WeatherDisplay:10.37,2013-03-05 14:15:00,
2013-03-05 08:20:00,45.8,32.3,30.29,NNW,347,20.0,26.0,59,0.00,OVC,,0.00,302.0,WeatherDisplay:10.37,2013-03-05 14:20:00,
2013-03-05 08:25:00,45.8,32.3,30.29,NNW,342,18.0,29.0,59,0.00,OVC,,0.00,132.0,WeatherDisplay:10.37,2013-03-05 14:25:00,
2013-03-05 08:30:00,45.7,31.4,30.29,North,349,20.0,36.0,57,0.00,OVC,,0.00,145.0,WeatherDisplay:10.37,2013-03-05 14:30:00,
2013-03-05 08:35:00,45.9,31.5,30.29,North,352,18.0,28.0,57,0.00,OVC,,0.00,454.0,WeatherDisplay:10.37,2013-03-05 14:35:00,
2013-03-05 08:40:00,46.1,30.8,30.30,NNW,346,20.0,31.0,55,0.00,OVC,,0.00,475.0,WeatherDisplay:10.37,2013-03-05 14:40:00,
2013-03-05 08:45:00,46.3,31.0,30.30,North,349,18.0,29.0,55,0.00,OVC,,0.00,493.0,WeatherDisplay:10.37,2013-03-05 14:45:00,
2013-03-05 08:50:00,46.4,30.2,30.30,North,359,20.0,32.0,53,0.00,OVC,,0.00,512.0,WeatherDisplay:10.37,2013-03-05 14:50:00,
2013-03-05 08:55:00,46.5,30.3,30.30,NW,320,19.6,19.6,53,0.00,OVC,,0.00,527.0,WeatherDisplay:10.37,2013-03-05 14:55:00,
2013-03-05 09:00:00,46.6,29.4,30.31,North,7,27.6,27.6,51,0.00,OVC,,0.00,544.0,WeatherDisplay:10.37,2013-03-05 15:00:00,
2013-03-05 09:05:00,46.8,29.6,30.31,NNW,338,28.8,28.8,51,0.00,OVC,,0.00,562.0,WeatherDisplay:10.37,2013-03-05 15:05:00,
2013-03-05 09:11:00,47.1,28.9,30.31,SSW,207,29.9,29.9,49,0.00,OVC,,0.00,577.0,WeatherDisplay:10.37,2013-03-05 15:11:00,
2013-03-05 09:16:00,47.9,30.1,30.31,North,352,18.4,18.4,50,0.00,OVC,,0.00,593.0,WeatherDisplay:10.37,2013-03-05 15:16:00,
2013-03-05 09:21:00,48.2,29.9,30.32,NNW,334,24.2,24.2,49,0.00,OVC,,0.00,608.0,WeatherDisplay:10.37,2013-03-05 15:21:00,
2013-03-05 09:26:00,48.0,27.6,30.32,NNW,345,29.9,29.9,45,0.00,OVC,,0.00,624.0,WeatherDisplay:10.37,2013-03-05 15:26:00,
2013-03-05 09:32:00,48.0,27.1,30.32,NNE,13,28.8,28.8,44,0.00,OVC,,0.00,637.0,WeatherDisplay:10.37,2013-03-05 15:32:00,
2013-03-05 09:37:00,48.1,26.6,30.32,NNW,335,24.6,24.6,43,0.00,OVC,,0.00,652.0,WeatherDisplay:10.37,2013-03-05 15:37:00,
2013-03-05 09:42:00,48.5,26.4,30.33,NNE,18,29.9,29.9,42,0.00,OVC,,0.00,662.0,WeatherDisplay:10.37,2013-03-05 15:42:00,
2013-03-05 09:47:00,48.6,26.5,30.33,North,6,26.5,26.5,42,0.00,OVC,,0.00,677.0,WeatherDisplay:10.37,2013-03-05 15:47:00,
2013-03-05 09:53:00,48.9,26.2,30.33,North,356,26.5,26.5,41,0.00,OVC,,0.00,691.0,WeatherDisplay:10.37,2013-03-05 15:53:00,
2013-03-05 09:58:00,49.1,26.4,30.33,NNE,18,35.7,35.7,41,0.00,OVC,,0.00,703.0,WeatherDisplay:10.37,2013-03-05 15:58:00,
2013-03-05 10:03:00,49.7,26.3,30.33,NNW,331,27.6,27.6,40,0.00,OVC,,0.00,712.0,WeatherDisplay:10.37,2013-03-05 16:03:00,
2013-03-05 10:08:00,50.0,26.6,30.33,NNW,328,27.6,27.6,40,0.00,OVC,,0.00,725.0,WeatherDisplay:10.37,2013-03-05 16:08:00,
2013-03-05 10:14:00,49.8,26.4,30.34,NW,319,31.1,31.1,40,0.00,OVC,,0.00,729.0,WeatherDisplay:10.37,2013-03-05 16:14:00,
2013-03-05 10:19:00,50.1,26.7,30.34,NW,317,26.7,26.7,40,0.00,OVC,,0.00,747.0,WeatherDisplay:10.37,2013-03-05 16:19:00,
2013-03-05 10:24:00,50.3,26.9,30.34,NNW,342,27.0,27.0,40,0.00,OVC,,0.00,755.0,WeatherDisplay:10.37,2013-03-05 16:24:00,
2013-03-05 10:29:00,50.2,25.5,30.35,NW,324,31.1,31.1,38,0.00,OVC,,0.00,764.0,WeatherDisplay:10.37,2013-03-05 16:29:00,
2013-03-05 10:35:00,50.2,26.1,30.35,NNW,331,21.0,29.0,39,0.00,OVC,,0.00,776.0,WeatherDisplay:10.37,2013-03-05 16:35:00,
2013-03-05 10:40:00,50.3,26.3,30.36,NNW,331,20.0,32.0,39,0.00,OVC,,0.00,783.0,WeatherDisplay:10.37,2013-03-05 16:40:00,
2013-03-05 10:45:00,50.8,26.7,30.36,NNW,334,24.0,32.0,39,0.00,OVC,,0.00,792.0,WeatherDisplay:10.37,2013-03-05 16:45:00,
2013-03-05 10:50:00,50.6,25.9,30.36,NNW,334,24.0,32.0,38,0.00,OVC,,0.00,797.0,WeatherDisplay:10.37,2013-03-05 16:50:00,
2013-03-05 10:55:00,50.6,25.9,30.36,NNW,330,21.0,31.0,38,0.00,OVC,,0.00,806.0,WeatherDisplay:10.37,2013-03-05 16:55:00,
2013-03-05 11:00:00,50.9,25.5,30.36,NNW,327,23.0,32.0,37,0.00,OVC,,0.00,811.0,WeatherDisplay:10.37,2013-03-05 17:00:00,
2013-03-05 11:05:00,51.0,25.6,30.36,NNW,330,17.0,31.0,37,0.00,OVC,,0.00,819.0,WeatherDisplay:10.37,2013-03-05 17:05:00,
2013-03-05 11:10:00,51.5,26.0,30.36,NNW,333,14.0,29.0,37,0.00,OVC,,0.00,827.0,WeatherDisplay:10.37,2013-03-05 17:10:00,
2013-03-05 11:15:00,51.6,26.2,30.36,NNW,336,17.0,26.0,37,0.00,OVC,,0.00,832.0,WeatherDisplay:10.37,2013-03-05 17:15:00,
2013-03-05 11:20:00,51.2,24.5,30.36,NNW,336,22.0,31.0,35,0.00,OVC,,0.00,836.0,WeatherDisplay:10.37,2013-03-05 17:20:00,
2013-03-05 11:25:00,51.3,25.9,30.36,NNW,335,21.0,29.0,37,0.00,OVC,,0.00,840.0,WeatherDisplay:10.37,2013-03-05 17:25:00,
2013-03-05 11:30:00,52.1,25.9,30.36,NNW,332,15.0,30.0,36,0.00,OVC,,0.00,845.0,WeatherDisplay:10.37,2013-03-05 17:30:00,
2013-03-05 11:35:00,52.3,26.8,30.36,NNW,335,13.0,25.0,37,0.00,OVC,,0.00,848.0,WeatherDisplay:10.37,2013-03-05 17:35:00,
2013-03-05 11:40:00,52.0,25.2,30.36,NNW,336,16.0,29.0,35,0.00,OVC,,0.00,849.0,WeatherDisplay:10.37,2013-03-05 17:40:00,
2013-03-05 11:45:00,52.0,24.4,30.36,NNW,332,23.0,29.0,34,0.00,OVC,,0.00,853.0,WeatherDisplay:10.37,2013-03-05 17:45:00,
2013-03-05 11:50:00,52.4,24.8,30.36,NNW,329,20.0,29.0,34,0.00,OVC,,0.00,856.0,WeatherDisplay:10.37,2013-03-05 17:50:00,
2013-03-05 11:55:00,52.6,24.3,30.36,NNW,332,16.0,27.0,33,0.00,OVC,,0.00,858.0,WeatherDisplay:10.37,2013-03-05 17:55:00,
2013-03-05 12:00:00,53.2,24.8,30.37,NNW,336,20.0,25.0,33,0.00,OVC,,0.00,862.0,WeatherDisplay:10.37,2013-03-05 18:00:00,
2013-03-05 12:05:00,52.8,24.5,30.36,NNW,336,21.0,27.0,33,0.00,OVC,,0.00,863.0,WeatherDisplay:10.37,2013-03-05 18:05:00,
2013-03-05 12:10:00,52.7,23.6,30.36,NNW,337,21.9,21.9,32,0.00,OVC,,0.00,862.0,WeatherDisplay:10.37,2013-03-05 18:10:00,
2013-03-05 12:15:00,52.4,24.1,30.37,North,349,16.0,29.0,33,0.00,OVC,,0.00,862.0,WeatherDisplay:10.37,2013-03-05 18:15:00,
2013-03-05 12:20:00,52.9,26.0,30.37,North,357,16.0,28.0,35,0.00,OVC,,0.00,861.0,WeatherDisplay:10.37,2013-03-05 18:20:00,
2013-03-05 12:25:00,54.4,26.6,30.36,NNW,333,18.0,26.0,34,0.00,OVC,,0.00,862.0,WeatherDisplay:10.37,2013-03-05 18:25:00,
2013-03-05 12:30:00,55.0,26.4,30.36,NW,323,16.0,26.0,33,0.00,OVC,,0.00,862.0,WeatherDisplay:10.37,2013-03-05 18:30:00,
2013-03-05 12:35:00,53.9,24.7,30.36,NNW,332,17.0,25.0,32,0.00,OVC,,0.00,861.0,WeatherDisplay:10.37,2013-03-05 18:35:00,
2013-03-05 12:40:00,54.3,25.8,30.36,NNW,333,18.0,26.0,33,0.00,OVC,,0.00,857.0,WeatherDisplay:10.37,2013-03-05 18:40:00,
2013-03-05 12:45:00,54.7,25.4,30.36,NNW,330,20.0,25.0,32,0.00,OVC,,0.00,859.0,WeatherDisplay:10.37,2013-03-05 18:45:00,
2013-03-05 12:50:00,53.8,24.6,30.36,NNW,336,20.0,28.0,32,0.00,CLR,,0.00,853.0,WeatherDisplay:10.37,2013-03-05 18:50:00,
2013-03-05 12:55:00,53.6,24.4,30.36,NNW,342,20.0,29.0,32,0.00,CLR,,0.00,847.0,WeatherDisplay:10.37,2013-03-05 18:55:00,
2013-03-05 13:00:00,53.6,25.1,30.36,NNW,344,14.0,23.0,33,0.00,CLR,,0.00,846.0,WeatherDisplay:10.37,2013-03-05 19:00:00,
2013-03-05 13:05:00,55.3,27.4,30.35,NW,322,20.7,20.7,34,0.00,CLR,,0.00,840.0,WeatherDisplay:10.37,2013-03-05 19:05:00,
2013-03-05 13:10:00,55.3,27.4,30.35,NW,325,21.9,21.9,34,0.00,CLR,,0.00,837.0,WeatherDisplay:10.37,2013-03-05 19:10:00,
2013-03-05 13:15:00,55.1,26.5,30.35,NW,325,24.2,24.2,33,0.00,CLR,,0.00,830.0,WeatherDisplay:10.37,2013-03-05 19:15:00,
2013-03-05 13:20:00,55.8,26.3,30.35,North,6,24.2,24.2,32,0.00,CLR,,0.00,825.0,WeatherDisplay:10.37,2013-03-05 19:20:00,
2013-03-05 13:26:00,55.4,26.0,30.35,NW,315,25.3,25.3,32,0.00,CLR,,0.00,821.0,WeatherDisplay:10.37,2013-03-05 19:26:00,
2013-03-05 13:31:00,55.1,25.7,30.35,NNW,343,21.9,21.9,32,0.00,CLR,,0.00,816.0,WeatherDisplay:10.37,2013-03-05 19:31:00,
2013-03-05 13:36:00,55.6,24.6,30.35,NNW,342,28.8,28.8,30,0.00,CLR,,0.00,810.0,WeatherDisplay:10.37,2013-03-05 19:36:00,
2013-03-05 13:41:00,55.3,24.4,30.34,NW,322,26.5,26.5,30,0.00,CLR,,0.00,799.0,WeatherDisplay:10.37,2013-03-05 19:41:00,
2013-03-05 13:47:00,55.5,24.5,30.35,North,350,24.2,24.2,30,0.00,CLR,,0.00,795.0,WeatherDisplay:10.37,2013-03-05 19:47:00,
2013-03-05 13:52:00,55.5,25.3,30.34,WNW,295,21.9,21.9,31,0.00,CLR,,0.00,785.0,WeatherDisplay:10.37,2013-03-05 19:52:00,
2013-03-05 13:57:00,56.3,25.2,30.34,NNW,328,23.0,23.0,30,0.00,CLR,,0.00,779.0,WeatherDisplay:10.37,2013-03-05 19:57:00,
2013-03-05 14:02:00,56.2,25.1,30.34,NW,326,23.0,23.0,30,0.00,CLR,,0.00,770.0,WeatherDisplay:10.37,2013-03-05 20:02:00,
2013-03-05 14:08:00,56.0,23.3,30.34,NW,322,26.5,26.5,28,0.00,CLR,,0.00,761.0,WeatherDisplay:10.37,2013-03-05 20:08:00,
2013-03-05 14:13:00,55.8,23.1,30.34,NW,323,24.2,24.2,28,0.00,CLR,,0.00,750.0,WeatherDisplay:10.37,2013-03-05 20:13:00,
2013-03-05 14:18:00,56.4,24.5,30.34,North,350,19.6,19.6,29,0.00,CLR,,0.00,738.0,WeatherDisplay:10.37,2013-03-05 20:18:00,
2013-03-05 14:23:00,56.8,23.1,30.34,NNW,333,25.3,25.3,27,0.00,CLR,,0.00,729.0,WeatherDisplay:10.37,2013-03-05 20:23:00,
2013-03-05 14:29:00,56.0,23.3,30.33,NW,322,25.3,25.3,28,0.00,CLR,,0.00,719.0,WeatherDisplay:10.37,2013-03-05 20:29:00,
2013-03-05 14:34:00,56.0,23.3,30.33,NNW,342,21.9,21.9,28,0.00,CLR,,0.00,707.0,WeatherDisplay:10.37,2013-03-05 20:34:00,
2013-03-05 14:39:00,56.8,24.8,30.33,WNW,299,18.4,18.4,29,0.00,CLR,,0.00,694.0,WeatherDisplay:10.37,2013-03-05 20:39:00,
2013-03-05 14:45:00,56.7,23.0,30.33,NNW,331,21.0,26.0,27,0.00,CLR,,0.00,683.0,WeatherDisplay:10.37,2013-03-05 20:45:00,
2013-03-05 14:50:00,57.0,24.2,30.33,NNW,331,15.0,26.0,28,0.00,CLR,,0.00,671.0,WeatherDisplay:10.37,2013-03-05 20:50:00,
2013-03-05 14:55:00,56.8,24.9,30.33,NNW,332,15.0,23.0,29,0.00,CLR,,0.00,659.0,WeatherDisplay:10.37,2013-03-05 20:55:00,
2013-03-05 15:00:00,56.8,24.0,30.33,NNW,333,18.0,29.0,28,0.00,CLR,,0.00,648.0,WeatherDisplay:10.37,2013-03-05 21:00:00,
2013-03-05 15:05:00,56.9,24.1,30.33,NNW,327,20.0,25.0,28,0.00,CLR,,0.00,633.0,WeatherDisplay:10.37,2013-03-05 21:05:00,
2013-03-05 15:10:00,57.1,23.4,30.33,NW,323,25.3,25.3,27,0.00,CLR,,0.00,624.0,WeatherDisplay:10.37,2013-03-05 21:10:00,
2013-03-05 15:15:00,56.5,22.9,30.32,NNW,328,18.0,31.0,27,0.00,CLR,,0.00,610.0,WeatherDisplay:10.37,2013-03-05 21:15:00,
2013-03-05 15:20:00,56.2,23.5,30.32,NNW,330,20.0,24.0,28,0.00,CLR,,0.00,597.0,WeatherDisplay:10.37,2013-03-05 21:20:00,
2013-03-05 15:25:00,56.4,22.8,30.32,NW,320,26.5,26.5,27,0.00,CLR,,0.00,581.0,WeatherDisplay:10.37,2013-03-05 21:25:00,
2013-03-05 15:30:00,57.1,24.3,30.32,NW,325,15.0,31.0,28,0.00,CLR,,0.00,567.0,WeatherDisplay:10.37,2013-03-05 21:30:00,
2013-03-05 15:35:00,57.1,23.4,30.32,NW,321,20.0,28.0,27,0.00,CLR,,0.00,553.0,WeatherDisplay:10.37,2013-03-05 21:35:00,
2013-03-05 15:40:00,57.0,23.3,30.32,NW,321,18.0,28.0,27,0.00,CLR,,0.00,541.0,WeatherDisplay:10.37,2013-03-05 21:40:00,
2013-03-05 15:45:00,57.5,24.6,30.32,NW,323,15.0,20.0,28,0.00,CLR,,0.00,529.0,WeatherDisplay:10.37,2013-03-05 21:45:00,
2013-03-05 15:50:00,57.8,24.9,30.32,NNW,330,17.3,17.3,28,0.00,FEW,,0.00,514.0,WeatherDisplay:10.37,2013-03-05 21:50:00,
2013-03-05 15:55:00,57.3,23.6,30.32,NNW,329,18.0,23.0,27,0.00,FEW,,0.00,501.0,WeatherDisplay:10.37,2013-03-05 21:55:00,
2013-03-05 16:00:00,57.2,23.5,30.32,NNW,330,18.0,23.0,27,0.00,FEW,,0.00,486.0,WeatherDisplay:10.37,2013-03-05 22:00:00,
2013-03-05 16:05:00,56.3,23.6,30.31,NNW,342,12.0,21.0,28,0.00,FEW,,0.00,474.0,WeatherDisplay:10.37,2013-03-05 22:05:00,
2013-03-05 16:10:00,57.5,23.7,30.32,NNW,330,20.7,20.7,27,0.00,SCT,,0.00,458.0,WeatherDisplay:10.37,2013-03-05 22:10:00,
2013-03-05 16:15:00,57.0,24.2,30.31,NNW,330,16.0,22.0,28,0.00,SCT,,0.00,444.0,WeatherDisplay:10.37,2013-03-05 22:15:00,
2013-03-05 16:20:00,57.0,23.3,30.32,NNW,328,18.0,24.0,27,0.00,SCT,,0.00,428.0,WeatherDisplay:10.37,2013-03-05 22:20:00,
2013-03-05 16:25:00,56.8,23.1,30.32,NNW,330,13.0,23.0,27,0.00,SCT,,0.00,413.0,WeatherDisplay:10.37,2013-03-05 22:25:00,
2013-03-05 16:30:00,56.8,23.1,30.31,NNW,330,18.0,23.0,27,0.00,SCT,,0.00,397.0,WeatherDisplay:10.37,2013-03-05 22:30:00,
2013-03-05 16:35:00,57.4,24.5,30.32,WNW,285,21.9,21.9,28,0.00,BKN,,0.00,381.0,WeatherDisplay:10.37,2013-03-05 22:35:00,
2013-03-05 16:40:00,57.4,23.7,30.32,NW,315,14.0,22.0,27,0.00,BKN,,0.00,366.0,WeatherDisplay:10.37,2013-03-05 22:40:00,
2013-03-05 16:45:00,56.9,23.3,30.32,NW,324,17.0,25.0,27,0.00,BKN,,0.00,351.0,WeatherDisplay:10.37,2013-03-05 22:45:00,
2013-03-05 16:50:00,56.7,23.1,30.32,NW,325,17.0,26.0,27,0.00,BKN,,0.00,336.0,WeatherDisplay:10.37,2013-03-05 22:50:00,
2013-03-05 16:55:00,56.8,23.1,30.32,NW,321,15.0,23.0,27,0.00,BKN,,0.00,318.0,WeatherDisplay:10.37,2013-03-05 22:55:00,
2013-03-05 17:00:00,56.6,23.0,30.32,NW,325,14.0,23.0,27,0.00,BKN,,0.00,303.0,WeatherDisplay:10.37,2013-03-05 23:00:00,
2013-03-05 17:05:00,56.7,23.1,30.32,NW,322,20.0,24.0,27,0.00,OVC,,0.00,287.0,WeatherDisplay:10.37,2013-03-05 23:05:00,
2013-03-05 17:10:00,56.6,24.6,30.32,NW,319,16.0,25.0,29,0.00,OVC,,0.00,270.0,WeatherDisplay:10.37,2013-03-05 23:10:00,
2013-03-05 17:15:00,56.5,24.6,30.32,NW,323,14.0,21.0,29,0.00,OVC,,0.00,257.0,WeatherDisplay:10.37,2013-03-05 23:15:00,
2013-03-05 17:20:00,56.3,23.6,30.32,NW,321,18.0,22.0,28,0.00,OVC,,0.00,240.0,WeatherDisplay:10.37,2013-03-05 23:20:00,
2013-03-05 17:25:00,56.1,23.4,30.32,NW,321,15.0,19.0,28,0.00,OVC,,0.00,226.0,WeatherDisplay:10.37,2013-03-05 23:25:00,
2013-03-05 17:30:00,55.9,24.9,30.33,NW,314,18.4,18.4,30,0.00,OVC,,0.00,209.0,WeatherDisplay:10.37,2013-03-05 23:30:00,
2013-03-05 17:35:00,55.7,23.9,30.32,NNW,335,20.7,20.7,29,0.00,OVC,,0.00,193.0,WeatherDisplay:10.37,2013-03-05 23:35:00,
2013-03-05 17:40:00,55.5,24.5,30.32,NW,317,12.9,14.0,30,0.00,OVC,,0.00,175.0,WeatherDisplay:10.37,2013-03-05 23:40:00,
2013-03-05 17:46:00,55.2,23.5,30.32,NNW,328,20.7,20.7,29,0.00,OVC,,0.00,158.0,WeatherDisplay:10.37,2013-03-05 23:46:00,
2013-03-05 17:51:00,54.9,23.2,30.33,NNW,328,19.6,19.6,29,0.00,OVC,,0.00,137.0,WeatherDisplay:10.37,2013-03-05 23:51:00,
2013-03-05 17:56:00,54.6,22.9,30.33,NNW,329,18.4,18.4,29,0.00,OVC,,0.00,118.0,WeatherDisplay:10.37,2013-03-05 23:56:00,
2013-03-05 18:01:00,54.4,22.8,30.33,NNW,330,20.7,20.7,29,0.00,OVC,,0.00,96.0,WeatherDisplay:10.37,2013-03-06 00:01:00,
2013-03-05 18:06:00,54.1,23.3,30.33,NNW,335,17.3,17.3,30,0.00,OVC,,0.00,76.0,WeatherDisplay:10.37,2013-03-06 00:06:00,
2013-03-05 18:12:00,53.7,23.7,30.33,NW,321,18.4,18.4,31,0.00,OVC,,0.00,53.0,WeatherDisplay:10.37,2013-03-06 00:12:00,
2013-03-05 18:17:00,53.5,22.8,30.33,NNW,340,18.4,18.4,30,0.00,OVC,,0.00,32.0,WeatherDisplay:10.37,2013-03-06 00:17:00,
2013-03-05 18:22:00,53.2,23.3,30.33,NNW,327,17.3,17.3,31,0.00,OVC,,0.00,16.0,WeatherDisplay:10.37,2013-03-06 00:22:00,
2013-03-05 18:27:00,52.9,23.8,30.33,NNW,329,17.1,17.1,32,0.00,OVC,,0.00,7.0,WeatherDisplay:10.37,2013-03-06 00:27:00,
2013-03-05 18:33:00,52.5,23.5,30.34,NNW,345,16.1,16.1,32,0.00,OVC,,0.00,4.0,WeatherDisplay:10.37,2013-03-06 00:33:00,
2013-03-05 18:38:00,52.3,24.0,30.34,NW,320,13.8,13.8,33,0.00,OVC,,0.00,2.0,WeatherDisplay:10.37,2013-03-06 00:38:00,
2013-03-05 18:43:00,52.2,23.9,30.34,NNW,337,12.7,12.7,33,0.00,OVC,,0.00,2.0,WeatherDisplay:10.37,2013-03-06 00:43:00,
2013-03-05 18:49:00,51.5,24.7,30.34,NNW,328,8.1,8.1,35,0.00,OVC,,0.00,2.0,WeatherDisplay:10.37,2013-03-06 00:49:00,
2013-03-05 18:54:00,51.1,25.0,30.35,NNW,327,11.5,11.5,36,0.00,OVC,,0.00,2.0,WeatherDisplay:10.37,2013-03-06 00:54:00,
2013-03-05 18:59:00,50.9,24.9,30.35,NNW,339,9.2,9.2,36,0.00,CLR,,0.00,1.0,WeatherDisplay:10.37,2013-03-06 00:59:00,
2013-03-05 19:04:00,50.7,25.3,30.35,NW,323,9.2,9.2,37,0.00,CLR,,0.00,1.0,WeatherDisplay:10.37,2013-03-06 01:04:00,
2013-03-05 19:10:00,50.4,25.8,30.35,NW,322,7.0,14.0,38,0.00,CLR,,0.00,0.0,WeatherDisplay:10.37,2013-03-06 01:10:00,
2013-03-05 19:15:00,50.6,25.2,30.35,NW,320,9.0,14.0,37,0.00,CLR,,0.00,0.0,WeatherDisplay:10.37,2013-03-06 01:15:00,
2013-03-05 19:20:00,50.5,25.2,30.35,NW,321,8.0,11.0,37,0.00,CLR,,0.00,0.0,WeatherDisplay:10.37,2013-03-06 01:20:00,
2013-03-05 19:25:00,50.4,24.4,30.36,NW,322,8.0,13.0,36,0.00,CLR,,0.00,0.0,WeatherDisplay:10.37,2013-03-06 01:25:00,
2013-03-05 19:30:00,50.1,24.2,30.36,NNW,329,10.4,10.4,36,0.00,CLR,,0.00,2.0,WeatherDisplay:10.37,2013-03-06 01:30:00,
2013-03-05 19:35:00,49.9,24.6,30.36,NW,325,7.0,10.0,37,0.00,CLR,,0.00,0.0,WeatherDisplay:10.37,2013-03-06 01:35:00,
2013-03-05 19:40:00,49.5,24.3,30.36,NW,322,8.4,8.4,37,0.00,CLR,,0.00,2.0,WeatherDisplay:10.37,2013-03-06 01:40:00,
2013-03-05 19:45:00,49.4,24.8,30.36,WNW,294,8.1,8.1,38,0.00,CLR,,0.00,2.0,WeatherDisplay:10.37,2013-03-06 01:45:00,
2013-03-05 19:50:00,49.2,25.3,30.36,NW,314,8.1,8.1,39,0.00,CLR,,0.00,2.0,WeatherDisplay:10.37,2013-03-06 01:50:00,
2013-03-05 19:56:00,48.9,25.6,30.36,WNW,296,10.4,10.4,40,0.00,CLR,,0.00,2.0,WeatherDisplay:10.37,2013-03-06 01:56:00,
2013-03-05 20:01:00,48.6,24.7,30.36,NW,320,9.2,9.2,39,0.00,CLR,,0.00,2.0,WeatherDisplay:10.37,2013-03-06 02:01:00,
2013-03-05 20:06:00,48.3,24.5,30.36,NW,320,8.1,8.1,39,0.00,CLR,,0.00,1.0,WeatherDisplay:10.37,2013-03-06 02:06:00,
2013-03-05 20:11:00,48.1,24.3,30.36,NW,321,9.2,9.2,39,0.00,CLR,,0.00,1.0,WeatherDisplay:10.37,2013-03-06 02:11:00,
2013-03-05 20:17:00,47.9,24.1,30.37,NW,323,10.4,10.4,39,0.00,CLR,,0.00,2.0,WeatherDisplay:10.37,2013-03-06 02:17:00,
2013-03-05 20:22:00,47.9,24.1,30.37,NNW,329,9.2,9.2,39,0.00,CLR,,0.00,1.0,WeatherDisplay:10.37,2013-03-06 02:22:00,
2013-03-05 20:27:00,47.9,24.7,30.37,NW,317,10.4,10.4,40,0.00,CLR,,0.00,2.0,WeatherDisplay:10.37,2013-03-06 02:27:00,
2013-03-05 20:33:00,48.0,24.2,30.37,NW,324,10.4,10.4,39,0.00,CLR,,0.00,2.0,WeatherDisplay:10.37,2013-03-06 02:33:00,
2013-03-05 20:38:00,48.1,24.3,30.37,NW,326,11.5,11.5,39,0.00,CLR,,0.00,2.0,WeatherDisplay:10.37,2013-03-06 02:38:00,
2013-03-05 20:43:00,47.9,24.7,30.37,NNW,330,10.4,10.4,40,0.00,CLR,,0.00,1.0,WeatherDisplay:10.37,2013-03-06 02:43:00,
2013-03-05 20:48:00,47.7,25.1,30.38,NNW,338,9.9,9.9,41,0.00,CLR,,0.00,1.0,WeatherDisplay:10.37,2013-03-06 02:48:00,
2013-03-05 20:54:00,47.8,25.2,30.37,NNW,345,10.4,10.4,41,0.00,CLR,,0.00,0.0,WeatherDisplay:10.37,2013-03-06 02:54:00,
2013-03-05 20:59:00,48.0,24.8,30.37,North,349,11.5,11.5,40,0.00,CLR,,0.00,2.0,WeatherDisplay:10.37,2013-03-06 02:59:00,
2013-03-05 21:04:00,48.1,24.9,30.37,NNW,329,9.2,9.2,40,0.00,CLR,,0.00,2.0,WeatherDisplay:10.37,2013-03-06 03:04:00,
2013-03-05 21:09:00,48.0,24.8,30.38,NNW,337,10.4,10.4,40,0.00,CLR,,0.00,1.0,WeatherDisplay:10.37,2013-03-06 03:09:00,
2013-03-05 21:15:00,48.0,24.8,30.38,NW,320,10.4,10.4,40,0.00,CLR,,0.00,1.0,WeatherDisplay:10.37,2013-03-06 03:15:00,
2013-03-05 21:20:00,47.9,24.7,30.38,NNW,340,8.0,14.0,40,0.00,CLR,,0.00,0.0,WeatherDisplay:10.37,2013-03-06 03:20:00,
2013-03-05 21:25:00,47.7,25.1,30.38,NNW,347,9.2,9.2,41,0.00,CLR,,0.00,2.0,WeatherDisplay:10.37,2013-03-06 03:25:00,
2013-03-05 21:30:00,47.4,24.9,30.38,NNW,342,7.0,9.0,41,0.00,CLR,,0.00,0.0,WeatherDisplay:10.37,2013-03-06 03:30:00,
2013-03-05 21:35:00,47.1,24.6,30.38,NNW,330,10.4,10.4,41,0.00,CLR,,0.00,2.0,WeatherDisplay:10.37,2013-03-06 03:35:00,
2013-03-05 21:40:00,46.8,24.9,30.39,NNW,346,8.1,8.1,42,0.00,CLR,,0.00,2.0,WeatherDisplay:10.37,2013-03-06 03:40:00,
2013-03-05 21:45:00,46.6,24.7,30.39,NNW,341,8.1,8.1,42,0.00,CLR,,0.00,1.0,WeatherDisplay:10.37,2013-03-06 03:45:00,
2013-03-05 21:50:00,46.5,24.6,30.39,North,351,5.8,5.8,42,0.00,CLR,,0.00,2.0,WeatherDisplay:10.37,2013-03-06 03:50:00,
2013-03-05 21:56:00,46.1,24.3,30.39,NNW,339,6.9,6.9,42,0.00,CLR,,0.00,1.0,WeatherDisplay:10.37,2013-03-06 03:56:00,
2013-03-05 22:01:00,46.0,24.2,30.39,NNW,330,9.2,9.2,42,0.00,CLR,,0.00,2.0,WeatherDisplay:10.37,2013-03-06 04:01:00,
2013-03-05 22:06:00,45.9,24.6,30.39,NNW,340,6.9,6.9,43,0.00,CLR,,0.00,2.0,WeatherDisplay:10.37,2013-03-06 04:06:00,
2013-03-05 22:12:00,45.7,24.5,30.39,NNW,339,6.3,6.3,43,0.00,CLR,,0.00,2.0,WeatherDisplay:10.37,2013-03-06 04:12:00,
2013-03-05 22:17:00,45.3,24.1,30.40,NNW,333,6.9,6.9,43,0.00,CLR,,0.00,2.0,WeatherDisplay:10.37,2013-03-06 04:17:00,
2013-03-05 22:22:00,45.3,24.1,30.39,NNW,337,8.1,8.1,43,0.00,CLR,,0.00,1.0,WeatherDisplay:10.37,2013-03-06 04:22:00,
2013-03-05 22:27:00,45.1,23.9,30.39,North,354,5.8,5.8,43,0.00,CLR,,0.00,1.0,WeatherDisplay:10.37,2013-03-06 04:27:00,
2013-03-05 22:33:00,44.9,24.3,30.39,NW,326,6.9,6.9,44,0.00,CLR,,0.00,2.0,WeatherDisplay:10.37,2013-03-06 04:33:00,
2013-03-05 22:38:00,44.8,24.2,30.39,NNW,338,6.9,6.9,44,0.00,CLR,,0.00,2.0,WeatherDisplay:10.37,2013-03-06 04:38:00,
2013-03-05 22:43:00,44.8,24.2,30.40,NNE,12,8.1,8.1,44,0.00,CLR,,0.00,2.0,WeatherDisplay:10.37,2013-03-06 04:43:00,
2013-03-05 22:49:00,44.8,24.7,30.40,NNW,332,8.1,8.1,45,0.00,CLR,,0.00,2.0,WeatherDisplay:10.37,2013-03-06 04:49:00,
2013-03-05 22:54:00,44.6,25.1,30.40,NNW,335,8.1,8.1,46,0.00,CLR,,0.00,1.0,WeatherDisplay:10.37,2013-03-06 04:54:00,
2013-03-05 22:59:00,44.5,25.5,30.40,NNW,333,8.1,8.1,47,0.00,CLR,,0.00,2.0,WeatherDisplay:10.37,2013-03-06 04:59:00,
2013-03-05 23:00:00,44.4,25.9,30.40,NNW,333,8.1,8.1,48,0.00,CLR,,0.00,2.0,WeatherDisplay:10.37,2013-03-06 05:00:00,
2013-03-05 23:05:00,44.1,25.6,30.40,NNW,328,5.8,5.8,48,0.00,CLR,,0.00,1.0,WeatherDisplay:10.37,2013-03-06 05:05:00,
2013-03-05 23:11:00,43.8,26.3,30.40,NNW,329,5.8,5.8,50,0.00,CLR,,0.00,2.0,WeatherDisplay:10.37,2013-03-06 05:11:00,
2013-03-05 23:16:00,43.7,26.7,30.40,NNW,338,5.8,5.8,51,0.00,CLR,,0.00,2.0,WeatherDisplay:10.37,2013-03-06 05:16:00,
2013-03-05 23:21:00,43.7,27.2,30.40,North,354,5.8,5.8,52,0.00,CLR,,0.00,2.0,WeatherDisplay:10.37,2013-03-06 05:21:00,
2013-03-05 23:26:00,43.6,27.1,30.39,NNW,330,6.9,6.9,52,0.00,CLR,,0.00,2.0,WeatherDisplay:10.37,2013-03-06 05:26:00,
2013-03-05 23:32:00,43.6,27.1,30.40,NNW,345,6.0,6.0,52,0.00,CLR,,0.00,2.0,WeatherDisplay:10.37,2013-03-06 05:32:00,
2013-03-05 23:37:00,43.5,27.0,30.40,NNW,339,6.9,6.9,52,0.00,CLR,,0.00,2.0,WeatherDisplay:10.37,2013-03-06 05:37:00,
2013-03-05 23:42:00,43.4,26.9,30.40,North,353,8.4,8.4,52,0.00,CLR,,0.00,1.0,WeatherDisplay:10.37,2013-03-06 05:42:00,
2013-03-05 23:48:00,43.3,26.8,30.40,NNW,347,9.2,9.2,52,0.00,CLR,,0.00,0.0,WeatherDisplay:10.37,2013-03-06 05:48:00,
2013-03-05 23:53:00,43.1,26.2,30.40,North,351,8.1,8.1,51,0.00,CLR,,0.00,2.0,WeatherDisplay:10.37,2013-03-06 05:53:00,
2013-03-05 23:58:00,43.0,26.1,30.41,North,353,8.1,8.1,51,0.00,CLR,,0.00,2.0,WeatherDisplay:10.37,2013-03-06 05:58:00,